Time;durP1;ratioP1;P1;durP2;ratioP2;P2;SDS_P1;SDS_P2;PMS_P1;PMS_P2;Temp;Humidity;BMP_temperature;BMP_pressure;BME280_temperature;BME280_humidity;BME280_pressure;Samples;Min_cycle;Max_cycle;Signal;HPM_P1;HPM_P2
2022/10/14 00:01:31;;;;;;;4.00;3.15;;;20.90;52.00;;;;;;5054912;28;20037;-49
2022/10/14 00:03:58;;;;;;;4.10;2.85;;;20.80;52.00;;;;;;5054441;28;20033;-48
2022/10/14 00:06:27;;;;;;;3.10;2.67;;;20.90;52.10;;;;;;5051905;28;20083;-52
2022/10/14 00:08:54;;;;;;;3.42;3.00;;;20.80;52.00;;;;;;5049851;28;20329;-51
2022/10/14 00:11:24;;;;;;;3.10;2.80;;;20.80;52.10;;;;;;5050010;28;20056;-48
2022/10/14 00:13:53;;;;;;;3.10;2.80;;;20.80;52.10;;;;;;5054888;28;20041;-53
2022/10/14 00:16:26;;;;;;;3.47;2.97;;;20.80;52.10;;;;;;5055276;28;20448;-49
2022/10/14 00:18:52;;;;;;;3.25;2.83;;;20.80;52.10;;;;;;5052758;28;20039;-50
2022/10/14 00:21:18;;;;;;;4.00;3.03;;;20.80;52.10;;;;;;5045806;28;20038;-51
2022/10/14 00:23:45;;;;;;;3.15;2.65;;;20.80;52.00;;;;;;5034904;28;20037;-51
2022/10/14 00:26:29;;;;;;;5.40;3.50;;;20.80;52.00;;;;;;5035047;28;20045;-49
2022/10/14 00:28:56;;;;;;;4.05;3.47;;;20.80;52.00;;;;;;5035703;28;20310;-51
2022/10/14 00:31:25;;;;;;;3.33;3.03;;;20.80;52.00;;;;;;5042953;28;20395;-51
2022/10/14 00:33:51;;;;;;;3.17;2.88;;;20.80;52.10;;;;;;5054758;28;20460;-47
2022/10/14 00:36:19;;;;;;;3.30;2.92;;;20.80;52.10;;;;;;5053868;28;20049;-52
2022/10/14 00:38:45;;;;;;;3.28;2.78;;;20.80;52.10;;;;;;5053346;28;20029;-49
2022/10/14 00:41:15;;;;;;;3.53;2.85;;;20.80;52.00;;;;;;5054614;28;20029;-49
2022/10/14 00:44:04;;;;;;;3.13;2.33;;;20.80;52.00;;;;;;5052938;28;20029;-48
2022/10/14 00:46:33;;;;;;;3.47;2.70;;;20.80;52.00;;;;;;5051670;28;20033;-50
2022/10/14 00:49:06;;;;;;;3.33;2.55;;;20.80;52.10;;;;;;5053866;28;20075;-53
2022/10/14 00:51:34;;;;;;;3.25;2.70;;;20.70;52.10;;;;;;5054470;28;20032;-47
2022/10/14 00:54:00;;;;;;;3.75;3.15;;;20.80;52.10;;;;;;5053098;28;20032;-48
2022/10/14 00:56:28;;;;;;;4.32;3.20;;;20.70;52.70;;;;;;5044329;28;20022;-54
2022/10/14 00:58:55;;;;;;;3.38;2.78;;;20.80;52.20;;;;;;5034467;28;20044;-52
2022/10/14 01:01:21;;;;;;;3.88;2.60;;;20.70;52.20;;;;;;5039647;28;20037;-47
2022/10/14 01:03:47;;;;;;;3.05;2.67;;;20.70;52.20;;;;;;5044758;28;20030;-51
2022/10/14 01:06:22;;;;;;;3.72;3.03;;;20.70;52.20;;;;;;5043382;28;20356;-51
2022/10/14 01:08:57;;;;;;;3.13;2.75;;;20.70;52.30;;;;;;5053238;28;20139;-49
2022/10/14 01:11:49;;;;;;;2.97;2.58;;;20.70;52.20;;;;;;5054036;28;20061;-53
2022/10/14 01:14:39;;;;;;;4.45;2.50;;;20.70;52.10;;;;;;5053231;28;20041;-50
2022/10/14 01:17:43;;;;;;;3.20;2.80;;;20.70;52.70;;;;;;5054257;28;20036;-50
2022/10/14 01:20:21;;;;;;;2.90;2.47;;;20.70;52.10;;;;;;5049695;28;20132;-47
2022/10/14 01:22:55;;;;;;;2.88;2.58;;;20.70;52.20;;;;;;5056111;28;20025;-46
2022/10/14 01:25:27;;;;;;;2.80;2.30;;;20.70;52.10;;;;;;5051314;28;20029;-48
2022/10/14 01:28:29;;;;;;;2.40;2.15;;;20.70;52.20;;;;;;5058269;28;20051;-49
2022/10/14 01:31:06;;;;;;;2.00;1.80;;;20.70;52.10;;;;;;5001298;28;20123;-50
2022/10/14 01:33:38;;;;;;;2.40;2.20;;;20.70;52.10;;;;;;5055218;28;20036;-47
2022/10/14 01:36:16;;;;;;;2.38;2.00;;;20.70;52.10;;;;;;5056523;28;20041;-50
2022/10/14 01:38:48;;;;;;;2.80;2.17;;;20.70;52.10;;;;;;5056555;28;20415;-46
2022/10/14 01:41:40;;;;;;;2.50;2.30;;;20.70;52.10;;;;;;5055737;28;20041;-50
2022/10/14 01:44:11;;;;;;;2.92;2.60;;;20.70;52.10;;;;;;5063423;28;20038;-48
2022/10/14 01:46:41;;;;;;;2.42;2.15;;;20.70;52.10;;;;;;5049143;28;20345;-51
2022/10/14 01:49:20;;;;;;;2.22;2.00;;;20.70;52.10;;;;;;5056840;28;20075;-51
2022/10/14 01:51:55;;;;;;;3.10;2.60;;;20.70;52.10;;;;;;5056186;28;20437;-48
2022/10/14 01:54:26;;;;;;;2.80;2.40;;;20.60;52.00;;;;;;5055367;28;20040;-50
2022/10/14 01:56:55;;;;;;;2.95;2.65;;;20.70;52.10;;;;;;5051155;28;20072;-49
2022/10/14 01:59:23;;;;;;;4.18;2.45;;;20.60;52.10;;;;;;5051314;28;20066;-49
2022/10/14 02:01:49;;;;;;;2.40;2.10;;;20.60;52.00;;;;;;5056227;28;20388;-52
2022/10/14 02:04:17;;;;;;;2.53;1.90;;;20.60;52.10;;;;;;5055903;28;20025;-48
2022/10/14 02:06:53;;;;;;;2.88;2.40;;;20.60;52.10;;;;;;5046358;28;20076;-48
2022/10/14 02:09:39;;;;;;;2.35;2.00;;;20.60;52.10;;;;;;5047131;28;20025;-51
2022/10/14 02:12:21;;;;;;;2.55;2.35;;;20.60;52.10;;;;;;5056371;28;20387;-51
2022/10/14 02:15:07;;;;;;;2.30;2.10;;;20.60;52.00;;;;;;5055521;28;20041;-48
2022/10/14 02:17:42;;;;;;;2.55;2.10;;;20.60;52.00;;;;;;5056673;28;20032;-52
2022/10/14 02:20:30;;;;;;;2.40;2.10;;;20.60;52.10;;;;;;5051207;28;20071;-46
2022/10/14 02:23:02;;;;;;;;;;;20.60;52.10;;;;;;5053413;28;20107;-48
2022/10/14 02:25:34;;;;;;;2.20;2.00;;;20.60;52.10;;;;;;5055478;28;19915;-48
2022/10/14 02:28:03;;;;;;;3.17;2.10;;;20.60;52.10;;;;;;5056669;28;20140;-46
2022/10/14 02:30:34;;;;;;;2.78;2.47;;;20.60;52.10;;;;;;5056664;28;20379;-46
2022/10/14 02:33:01;;;;;;;2.78;2.30;;;20.60;52.20;;;;;;5055515;28;20114;-46
2022/10/14 02:35:29;;;;;;;2.08;1.88;;;20.60;52.20;;;;;;5053503;28;20033;-48
2022/10/14 02:37:57;;;;;;;2.45;2.17;;;20.60;52.20;;;;;;5055952;28;20039;-48
2022/10/14 02:40:28;;;;;;;2.60;2.28;;;20.60;52.20;;;;;;5056432;28;20031;-48
2022/10/14 02:42:54;;;;;;;3.03;2.50;;;20.60;52.20;;;;;;5056301;28;20029;-46
2022/10/14 02:45:23;;;;;;;2.88;2.58;;;20.60;52.20;;;;;;5054477;28;20091;-49
2022/10/14 02:47:49;;;;;;;2.60;2.33;;;20.60;52.30;;;;;;5055741;28;20025;-50
2022/10/14 02:50:17;;;;;;;2.90;2.25;;;20.60;52.30;;;;;;5052088;28;20356;-48
2022/10/14 02:52:44;;;;;;;3.10;2.65;;;20.60;52.30;;;;;;5055786;28;20029;-50
2022/10/14 02:55:10;;;;;;;3.20;2.90;;;20.60;52.30;;;;;;5054299;28;20040;-48
2022/10/14 02:57:37;;;;;;;3.40;2.78;;;20.60;52.30;;;;;;5055288;28;20044;-49
2022/10/14 03:00:05;;;;;;;2.95;2.65;;;20.60;52.30;;;;;;5049871;28;20033;-51
2022/10/14 03:02:33;;;;;;;2.95;2.60;;;20.50;52.30;;;;;;5040870;28;20082;-49
2022/10/14 03:05:00;;;;;;;3.72;3.08;;;20.60;52.30;;;;;;5040116;28;20029;-53
2022/10/14 03:07:27;;;;;;;3.10;2.60;;;20.60;52.30;;;;;;5052323;28;20024;-47
2022/10/14 03:09:57;;;;;;;3.80;3.10;;;20.60;52.30;;;;;;5038958;28;20085;-47
2022/10/14 03:12:23;;;;;;;3.25;2.72;;;20.60;52.30;;;;;;5041116;28;20040;-51
2022/10/14 03:14:50;;;;;;;3.20;2.90;;;20.60;52.30;;;;;;5054053;28;20041;-48
2022/10/14 03:17:17;;;;;;;3.95;3.15;;;20.50;52.30;;;;;;5054861;28;20031;-48
2022/10/14 03:19:43;;;;;;;3.83;3.17;;;20.50;52.30;;;;;;5052317;28;20071;-49
2022/10/14 03:22:11;;;;;;;4.38;3.13;;;20.60;52.30;;;;;;5054676;28;20060;-52
2022/10/14 03:24:38;;;;;;;3.35;2.97;;;20.50;52.30;;;;;;5054861;28;20099;-47
2022/10/14 03:27:26;;;;;;;3.72;3.10;;;20.50;52.30;;;;;;5050728;28;20046;-48
2022/10/14 03:29:57;;;;;;;3.78;3.08;;;20.60;52.30;;;;;;5052515;28;21128;-47
2022/10/14 03:32:24;;;;;;;3.85;3.20;;;20.50;52.30;;;;;;5036868;28;20030;-50
2022/10/14 03:35:09;;;;;;;3.63;2.75;;;20.50;52.30;;;;;;5054733;28;20098;-52
2022/10/14 03:37:36;;;;;;;4.55;3.85;;;20.50;52.30;;;;;;5054388;28;20444;-53
2022/10/14 03:40:04;;;;;;;3.92;3.53;;;20.50;52.30;;;;;;5052971;28;20025;-52
2022/10/14 03:42:32;;;;;;;3.60;3.15;;;20.50;52.30;;;;;;5041558;28;20111;-51
2022/10/14 03:44:58;;;;;;;3.42;3.10;;;20.50;52.30;;;;;;5053916;28;20120;-49
2022/10/14 03:47:28;;;;;;;4.65;3.53;;;20.50;52.30;;;;;;5053255;28;20032;-51
2022/10/14 03:49:54;;;;;;;4.03;3.50;;;20.50;52.30;;;;;;5049768;28;20116;-46
2022/10/14 03:52:32;;;;;;;3.95;3.20;;;20.50;52.30;;;;;;5033844;28;20060;-49
2022/10/14 03:55:09;;;;;;;4.85;3.45;;;20.50;52.30;;;;;;5048022;28;20039;-50
2022/10/14 03:57:35;;;;;;;4.57;3.60;;;20.50;52.30;;;;;;5054211;28;20025;-46
2022/10/14 04:00:00;;;;;;;4.72;3.65;;;20.50;52.40;;;;;;5054166;28;20032;-53
2022/10/14 04:02:41;;;;;;;4.53;3.60;;;20.50;52.40;;;;;;5053497;28;20029;-47
2022/10/14 04:05:20;;;;;;;3.78;3.38;;;20.50;52.40;;;;;;5053392;28;20028;-52
2022/10/14 04:07:48;;;;;;;4.82;3.80;;;20.50;52.40;;;;;;5054329;28;20021;-47
2022/10/14 04:10:13;;;;;;;4.60;3.80;;;20.50;52.50;;;;;;5039476;28;20506;-50
2022/10/14 04:12:44;;;;;;;4.18;3.60;;;20.50;52.50;;;;;;5024437;28;20021;-50
2022/10/14 04:15:21;;;;;;;3.80;3.40;;;20.50;52.50;;;;;;5036722;28;20382;-50
2022/10/14 04:18:13;;;;;;;4.70;3.72;;;20.50;52.50;;;;;;5049171;28;20068;-47
2022/10/14 04:20:40;;;;;;;4.97;4.10;;;20.50;52.50;;;;;;5036911;28;20527;-51
2022/10/14 04:23:07;;;;;;;4.68;3.70;;;20.50;52.50;;;;;;5036567;28;20075;-47
2022/10/14 04:25:38;;;;;;;5.20;3.97;;;20.50;52.50;;;;;;5037790;28;20339;-51
2022/10/14 04:28:05;;;;;;;5.13;3.75;;;20.50;52.60;;;;;;5037178;28;20160;-47
2022/10/14 04:30:57;;;;;;;4.28;3.38;;;20.40;52.50;;;;;;5050543;28;20176;-50
2022/10/14 04:33:27;;;;;;;4.63;3.55;;;20.40;52.50;;;;;;5037233;28;20498;-52
2022/10/14 04:36:01;;;;;;;4.68;3.67;;;20.50;52.60;;;;;;5036175;28;20033;-52
2022/10/14 04:38:33;;;;;;;5.55;4.35;;;20.40;52.50;;;;;;5035612;28;20029;-47
2022/10/14 04:41:03;;;;;;;5.00;4.10;;;20.50;52.60;;;;;;5023413;28;20037;-50
2022/10/14 04:43:30;;;;;;;5.75;4.38;;;20.40;52.60;;;;;;5054669;28;20052;-50
2022/10/14 04:46:04;;;;;;;4.80;3.95;;;20.50;52.60;;;;;;5036954;28;20029;-48
2022/10/14 04:48:32;;;;;;;4.97;4.03;;;20.40;52.60;;;;;;5035885;28;20475;-47
2022/10/14 04:50:59;;;;;;;4.88;3.72;;;20.40;52.60;;;;;;5034919;28;20095;-47
2022/10/14 04:53:41;;;;;;;4.88;3.97;;;20.50;52.60;;;;;;5036297;28;20049;-50
2022/10/14 04:56:19;;;;;;;5.45;4.30;;;20.40;52.60;;;;;;5036924;28;20045;-52
2022/10/14 04:58:55;;;;;;;5.82;4.68;;;20.40;52.60;;;;;;5040210;28;20368;-47
2022/10/14 05:01:29;;;;;;;6.47;4.68;;;20.40;53.30;;;;;;5040698;28;20033;-50
2022/10/14 05:03:55;;;;;;;4.85;3.90;;;20.40;52.70;;;;;;5030842;28;20330;-51
2022/10/14 05:06:21;;;;;;;5.25;4.25;;;20.50;52.80;;;;;;5040421;28;20035;-50
2022/10/14 05:08:50;;;;;;;6.18;4.45;;;20.40;53.30;;;;;;5037481;28;20021;-49
2022/10/14 05:11:16;;;;;;;5.60;4.35;;;20.40;52.70;;;;;;5049979;28;20064;-45
2022/10/14 05:13:49;;;;;;;6.22;4.65;;;20.50;52.80;;;;;;5056817;28;20123;-50
2022/10/14 05:16:16;;;;;;;5.00;4.18;;;20.50;52.80;;;;;;5056985;28;20116;-46
2022/10/14 05:18:42;;;;;;;6.50;5.03;;;20.40;52.70;;;;;;5050470;28;20036;-45
2022/10/14 05:21:10;;;;;;;5.68;4.30;;;20.40;52.70;;;;;;5037320;28;20132;-46
2022/10/14 05:23:46;;;;;;;6.55;4.93;;;20.40;52.70;;;;;;5037235;28;20060;-47
2022/10/14 05:26:12;;;;;;;6.13;4.90;;;20.50;52.80;;;;;;5045262;28;20079;-46
2022/10/14 05:28:40;;;;;;;5.78;4.80;;;20.40;52.70;;;;;;5056093;28;20036;-49
2022/10/14 05:31:07;;;;;;;6.15;4.80;;;20.40;52.70;;;;;;5038957;28;20041;-49
2022/10/14 05:33:38;;;;;;;6.65;5.10;;;20.40;52.70;;;;;;5045132;28;20040;-51
2022/10/14 05:36:04;;;;;;;5.65;4.50;;;20.40;53.40;;;;;;5055409;28;20101;-51
2022/10/14 05:38:33;;;;;;;6.30;5.15;;;20.50;52.80;;;;;;5053382;28;20510;-47
2022/10/14 05:40:59;;;;;;;6.57;4.90;;;20.40;52.80;;;;;;5056312;28;20128;-52
2022/10/14 05:43:25;;;;;;;7.15;4.97;;;20.40;52.90;;;;;;5054639;28;20028;-48
2022/10/14 05:45:51;;;;;;;7.20;4.65;;;20.40;52.90;;;;;;5036751;28;20037;-47
2022/10/14 05:48:18;;;;;;;6.82;5.50;;;20.40;52.90;;;;;;5047098;28;20029;-47
2022/10/14 05:50:44;;;;;;;7.22;5.50;;;20.40;52.90;;;;;;5056310;28;20427;-48
2022/10/14 05:53:15;;;;;;;6.32;5.32;;;20.40;53.00;;;;;;5055388;28;20376;-47
2022/10/14 05:55:45;;;;;;;6.50;4.95;;;20.40;53.00;;;;;;5056289;28;20037;-48
2022/10/14 05:58:11;;;;;;;8.52;5.85;;;20.40;53.00;;;;;;5051064;28;20033;-46
2022/10/14 06:00:39;;;;;;;7.03;5.20;;;20.40;53.10;;;;;;5043989;28;20033;-48
2022/10/14 06:03:11;;;;;;;7.03;5.70;;;20.40;53.10;;;;;;5055855;28;20040;-48
2022/10/14 06:05:38;;;;;;;7.10;5.47;;;20.40;53.10;;;;;;5089549;28;20029;-52
2022/10/14 06:08:05;;;;;;;10.52;5.32;;;20.40;53.10;;;;;;5055445;28;20506;-48
2022/10/14 06:10:35;;;;;;;6.55;5.18;;;20.40;53.20;;;;;;5054378;28;20064;-49
2022/10/14 06:13:01;;;;;;;7.15;5.15;;;20.40;53.30;;;;;;5054286;28;20043;-49
2022/10/14 06:15:27;;;;;;;7.00;5.78;;;20.40;53.30;;;;;;5055933;28;20334;-46
2022/10/14 06:17:54;;;;;;;6.85;5.28;;;20.40;53.30;;;;;;5053436;28;20356;-49
2022/10/14 06:20:21;;;;;;;6.70;4.97;;;20.40;53.40;;;;;;5039035;28;20456;-50
2022/10/14 06:22:46;;;;;;;6.57;5.18;;;20.40;53.40;;;;;;5038274;28;20029;-48
2022/10/14 06:25:12;;;;;;;5.93;4.88;;;20.40;53.50;;;;;;5056403;28;20029;-52
2022/10/14 06:27:38;;;;;;;7.22;5.03;;;20.40;53.50;;;;;;5055484;28;20448;-51
2022/10/14 06:30:04;;;;;;;6.20;4.70;;;20.40;53.60;;;;;;5056570;28;20086;-52
2022/10/14 06:32:30;;;;;;;6.75;5.07;;;20.40;53.60;;;;;;5055928;28;20040;-49
2022/10/14 06:34:56;;;;;;;6.00;5.07;;;20.40;53.70;;;;;;5055785;28;20041;-49
2022/10/14 06:37:22;;;;;;;5.55;4.57;;;20.40;53.70;;;;;;5056167;28;20352;-46
2022/10/14 06:39:48;;;;;;;6.03;4.28;;;20.40;53.90;;;;;;5055318;28;20369;-47
2022/10/14 06:42:14;;;;;;;5.15;4.45;;;20.40;54.00;;;;;;5055574;28;20456;-51
2022/10/14 06:44:40;;;;;;;5.20;4.25;;;20.40;54.00;;;;;;5053112;28;20029;-47
2022/10/14 06:47:06;;;;;;;5.32;4.30;;;20.40;54.00;;;;;;5053415;28;20395;-54
2022/10/14 06:49:32;;;;;;;4.88;4.38;;;20.40;54.00;;;;;;5047479;28;20056;-52
2022/10/14 06:51:58;;;;;;;5.68;4.15;;;20.40;54.10;;;;;;5053660;28;20033;-53
2022/10/14 06:54:24;;;;;;;4.82;4.10;;;20.40;54.20;;;;;;5053234;28;20051;-51
2022/10/14 06:56:50;;;;;;;4.70;4.05;;;20.40;54.30;;;;;;5051412;28;20043;-51
2022/10/14 06:59:16;;;;;;;5.25;3.75;;;20.40;54.40;;;;;;5051969;28;20464;-53
2022/10/14 07:01:42;;;;;;;4.57;3.95;;;20.40;54.50;;;;;;5053547;28;20322;-53
2022/10/14 07:04:08;;;;;;;6.60;3.50;;;20.40;54.60;;;;;;5053388;28;20040;-51
2022/10/14 07:06:36;;;;;;;4.03;3.42;;;20.40;54.70;;;;;;5048056;28;20029;-51
2022/10/14 07:09:02;;;;;;;4.95;3.80;;;20.40;54.80;;;;;;5047930;28;20037;-51
2022/10/14 07:11:28;;;;;;;4.10;3.30;;;20.40;55.00;;;;;;5037519;28;20068;-51
2022/10/14 07:13:55;;;;;;;4.82;3.55;;;20.40;55.00;;;;;;5048722;28;20164;-51
2022/10/14 07:16:21;;;;;;;4.18;3.53;;;20.40;55.10;;;;;;5053655;28;20125;-51
2022/10/14 07:18:48;;;;;;;5.80;3.60;;;20.40;55.20;;;;;;5053527;28;20052;-50
2022/10/14 07:21:14;;;;;;;5.13;3.42;;;20.50;55.30;;;;;;5059293;28;20107;-50
2022/10/14 07:23:40;;;;;;;5.05;3.70;;;20.40;55.40;;;;;;5075517;28;20032;-50
2022/10/14 07:26:06;;;;;;;4.30;3.05;;;20.40;55.50;;;;;;5064337;28;20108;-51
2022/10/14 07:28:33;;;;;;;5.00;3.50;;;20.40;55.50;;;;;;5048037;28;20098;-52
2022/10/14 07:31:01;;;;;;;4.65;3.30;;;20.40;56.10;;;;;;5048194;28;20124;-49
2022/10/14 07:33:27;;;;;;;3.35;2.85;;;20.40;55.60;;;;;;5056770;28;20476;-46
2022/10/14 07:35:53;;;;;;;5.65;3.30;;;20.40;55.80;;;;;;5050593;28;20032;-48
2022/10/14 07:38:19;;;;;;;5.45;3.30;;;20.40;55.80;;;;;;5049255;28;20041;-49
2022/10/14 07:40:53;;;;;;;4.40;3.10;;;20.40;55.80;;;;;;5047121;28;20047;-50
2022/10/14 07:43:19;;;;;;;;;;;20.40;55.80;;;;;;5051200;28;20036;-51
2022/10/14 07:45:46;;;;;;;3.65;3.10;;;20.40;55.80;;;;;;5050367;28;19909;-50
2022/10/14 07:48:12;;;;;;;4.05;3.00;;;20.40;55.90;;;;;;5050455;28;20029;-48
2022/10/14 07:50:38;;;;;;;4.35;2.90;;;20.40;55.80;;;;;;5050607;28;20036;-50
2022/10/14 07:53:04;;;;;;;3.40;2.95;;;20.40;56.50;;;;;;5045486;28;20028;-48
2022/10/14 07:55:29;;;;;;;4.15;3.15;;;20.40;55.90;;;;;;5042803;28;20033;-51
2022/10/14 07:57:55;;;;;;;3.22;2.58;;;20.40;56.00;;;;;;5048481;28;20036;-48
2022/10/14 08:00:21;;;;;;;3.85;2.80;;;20.40;56.00;;;;;;5049098;28;20044;-48
2022/10/14 08:02:47;;;;;;;5.18;2.70;;;20.40;56.10;;;;;;5049698;28;20021;-51
2022/10/14 08:05:13;;;;;;;3.70;2.67;;;20.40;56.10;;;;;;5039594;28;20022;-55
2022/10/14 08:07:38;;;;;;;3.65;2.47;;;20.40;56.10;;;;;;5039222;28;20103;-51
2022/10/14 08:10:04;;;;;;;3.03;2.38;;;20.40;56.10;;;;;;5044068;28;20033;-49
2022/10/14 08:12:30;;;;;;;2.95;2.22;;;20.40;56.10;;;;;;5034221;28;20479;-51
2022/10/14 08:14:56;;;;;;;3.25;2.17;;;20.40;56.10;;;;;;5034758;28;20124;-52
2022/10/14 08:17:22;;;;;;;2.65;2.00;;;20.40;56.10;;;;;;5051654;28;20036;-49
2022/10/14 08:19:49;;;;;;;2.67;1.70;;;20.40;56.10;;;;;;5053327;28;20179;-47
2022/10/14 08:22:15;;;;;;;3.00;1.70;;;20.40;56.20;;;;;;5054591;28;20123;-48
2022/10/14 08:24:41;;;;;;;1.95;1.60;;;20.40;56.20;;;;;;5055046;28;20134;-52
2022/10/14 08:27:08;;;;;;;2.28;1.92;;;20.40;56.20;;;;;;5054961;28;20021;-47
2022/10/14 08:29:34;;;;;;;2.10;1.70;;;20.50;56.30;;;;;;5052592;28;20178;-51
2022/10/14 08:31:59;;;;;;;1.85;1.60;;;20.50;56.30;;;;;;5035610;28;20108;-52
2022/10/14 08:34:26;;;;;;;1.88;1.63;;;20.40;56.30;;;;;;5039193;28;20048;-46
2022/10/14 08:36:52;;;;;;;2.95;1.90;;;20.40;56.30;;;;;;5039344;28;20049;-50
2022/10/14 08:39:19;;;;;;;2.28;1.75;;;20.40;56.40;;;;;;5039123;28;20441;-49
2022/10/14 08:41:56;;;;;;;1.88;1.65;;;20.40;56.40;;;;;;5038803;28;20044;-50
2022/10/14 08:44:24;;;;;;;1.77;1.60;;;20.50;56.60;;;;;;5050508;28;20033;-48
2022/10/14 08:47:02;;;;;;;1.90;1.70;;;20.50;56.60;;;;;;5058806;28;20463;-50
2022/10/14 08:50:02;;;;;;;2.75;1.75;;;20.40;56.60;;;;;;5053003;28;20096;-51
2022/10/14 08:52:31;;;;;;;2.05;1.60;;;20.50;56.60;;;;;;4986952;28;20041;-51
2022/10/14 08:55:02;;;;;;;2.15;1.92;;;20.40;56.70;;;;;;5038130;28;20037;-45
2022/10/14 08:57:37;;;;;;;1.95;1.77;;;20.40;56.70;;;;;;5040753;28;20099;-50
2022/10/14 09:00:03;;;;;;;2.10;1.38;;;20.40;56.70;;;;;;5057627;28;20060;-50
2022/10/14 09:02:41;;;;;;;2.40;1.75;;;20.40;56.80;;;;;;5058897;28;20032;-46
2022/10/14 09:05:13;;;;;;;1.40;1.23;;;20.40;56.80;;;;;;5058552;28;20033;-48
2022/10/14 09:07:39;;;;;;;1.58;1.48;;;20.40;56.90;;;;;;5057912;28;20424;-47
2022/10/14 09:10:11;;;;;;;1.88;1.30;;;20.40;56.90;;;;;;5046531;28;20128;-47
2022/10/14 09:12:39;;;;;;;1.40;1.20;;;20.40;56.90;;;;;;5037411;28;20029;-46
2022/10/14 09:15:05;;;;;;;2.20;1.23;;;20.50;57.00;;;;;;5038378;28;20408;-48
2022/10/14 09:17:47;;;;;;;2.35;1.23;;;20.40;57.00;;;;;;5038231;28;20033;-47
2022/10/14 09:20:23;;;;;;;1.50;1.35;;;20.40;57.00;;;;;;5054428;28;20033;-50
2022/10/14 09:23:07;;;;;;;1.35;0.98;;;20.40;57.10;;;;;;5057596;28;20337;-53
2022/10/14 09:25:34;;;;;;;1.10;1.00;;;20.40;57.10;;;;;;5043383;28;20051;-49
2022/10/14 09:28:00;;;;;;;1.13;1.00;;;20.50;57.20;;;;;;5057486;28;20032;-49
2022/10/14 09:30:29;;;;;;;1.50;1.20;;;20.50;57.20;;;;;;5058141;28;20121;-47
2022/10/14 09:32:55;;;;;;;1.73;1.10;;;20.40;57.50;;;;;;5057031;28;20104;-48
2022/10/14 09:35:25;;;;;;;0.98;0.95;;;20.40;57.20;;;;;;5038330;28;20128;-52
2022/10/14 09:37:52;;;;;;;1.30;1.10;;;20.40;57.30;;;;;;5038117;28;20045;-49
2022/10/14 09:40:44;;;;;;;1.08;0.98;;;20.40;57.30;;;;;;5038049;28;20029;-50
2022/10/14 09:43:10;;;;;;;1.30;0.82;;;20.40;57.30;;;;;;5028472;28;20041;-49
2022/10/14 09:46:06;;;;;;;1.77;1.00;;;20.50;57.40;;;;;;5050155;28;20032;-49
2022/10/14 09:48:48;;;;;;;1.33;1.00;;;20.50;57.40;;;;;;5056599;28;20051;-49
2022/10/14 09:51:33;;;;;;;1.10;1.00;;;20.50;57.50;;;;;;5057841;28;20040;-49
2022/10/14 09:54:03;;;;;;;1.60;1.02;;;20.40;57.40;;;;;;5057130;28;20068;-48
2022/10/14 09:56:41;;;;;;;1.55;1.10;;;20.50;57.50;;;;;;5057379;28;20029;-48
2022/10/14 09:59:21;;;;;;;1.70;1.30;;;20.50;57.60;;;;;;5053688;28;20424;-48
2022/10/14 10:01:59;;;;;;;2.05;0.95;;;20.50;57.60;;;;;;5042467;28;20396;-47
2022/10/14 10:04:31;;;;;;;1.13;0.98;;;20.50;57.60;;;;;;5050271;28;20033;-50
2022/10/14 10:06:59;;;;;;;0.80;0.80;;;20.50;57.70;;;;;;5054901;28;20472;-47
2022/10/14 10:09:26;;;;;;;1.52;0.90;;;20.50;57.70;;;;;;5052745;28;20033;-53
2022/10/14 10:11:52;;;;;;;1.58;1.05;;;20.50;58.40;;;;;;5053581;28;20047;-53
2022/10/14 10:14:33;;;;;;;1.13;1.02;;;20.50;57.80;;;;;;5044797;28;20095;-51
2022/10/14 10:17:11;;;;;;;1.20;1.00;;;20.50;57.90;;;;;;5043576;28;20029;-53
2022/10/14 10:19:45;;;;;;;2.20;1.30;;;20.50;58.00;;;;;;5052199;28;20037;-53
2022/10/14 10:22:27;;;;;;;1.48;1.10;;;20.50;58.00;;;;;;5049604;28;20033;-50
2022/10/14 10:25:02;;;;;;;1.65;1.48;;;20.50;58.00;;;;;;5051350;28;20346;-51
2022/10/14 10:27:34;;;;;;;1.30;0.98;;;20.50;58.00;;;;;;5053811;28;20029;-51
2022/10/14 10:30:20;;;;;;;1.33;1.00;;;20.50;58.10;;;;;;5042622;28;20044;-52
2022/10/14 10:32:46;;;;;;;2.70;1.30;;;20.50;58.10;;;;;;5042317;28;20444;-50
2022/10/14 10:35:42;;;;;;;1.13;1.02;;;20.50;58.20;;;;;;5049751;28;20032;-52
2022/10/14 10:38:19;;;;;;;1.38;1.13;;;20.50;58.20;;;;;;5043044;28;20125;-49
2022/10/14 10:41:17;;;;;;;2.17;1.10;;;20.50;58.30;;;;;;5047608;28;20117;-48
2022/10/14 10:43:52;;;;;;;1.42;0.95;;;20.50;58.30;;;;;;5030804;28;20099;-53
2022/10/14 10:46:31;;;;;;;1.08;0.95;;;20.50;58.30;;;;;;5043345;28;20095;-50
2022/10/14 10:49:25;;;;;;;2.40;1.10;;;20.50;58.40;;;;;;5041313;28;20045;-52
2022/10/14 10:52:33;;;;;;;2.65;1.30;;;20.50;58.50;;;;;;5031164;28;20423;-53
2022/10/14 10:55:26;;;;;;;2.22;1.13;;;20.50;58.60;;;;;;4981815;28;20042;-53
2022/10/14 10:58:07;;;;;;;1.35;1.10;;;20.60;58.70;;;;;;4984336;28;20363;-49
2022/10/14 11:00:46;;;;;;;2.65;1.23;;;20.60;58.70;;;;;;5027631;28;20041;-54
2022/10/14 11:03:39;;;;;;;2.25;1.10;;;20.60;58.80;;;;;;5042423;28;20167;-47
2022/10/14 11:12:43;;;;;;;1.45;0.90;;;20.60;58.90;;;;;;5042919;28;20041;-51
2022/10/14 11:15:09;;;;;;;2.35;1.48;;;20.60;59.00;;;;;;5042717;28;20047;-49
2022/10/14 11:17:47;;;;;;;1.25;1.02;;;20.60;59.10;;;;;;5044890;28;20108;-50
2022/10/14 11:20:21;;;;;;;1.48;1.10;;;20.60;59.10;;;;;;5044587;28;20037;-49
2022/10/14 11:23:17;;;;;;;1.17;1.08;;;20.60;59.20;;;;;;5043240;28;20025;-48
2022/10/14 11:25:57;;;;;;;1.65;1.02;;;20.60;59.20;;;;;;5042007;28;20033;-52
2022/10/14 11:28:34;;;;;;;1.27;1.02;;;20.70;59.30;;;;;;5048123;28;20025;-46
2022/10/14 11:31:15;;;;;;;2.38;1.15;;;20.70;59.30;;;;;;5047086;28;20047;-46
2022/10/14 11:34:02;;;;;;;0.80;0.80;;;20.70;59.30;;;;;;5045099;28;20081;-50
2022/10/14 11:36:43;;;;;;;3.53;1.35;;;20.70;59.30;;;;;;5042509;28;20052;-49
2022/10/14 11:39:39;;;;;;;1.67;1.40;;;20.70;59.30;;;;;;5044809;28;20112;-45
2022/10/14 11:42:24;;;;;;;1.40;1.10;;;20.70;59.30;;;;;;5042596;28;20387;-45
2022/10/14 11:45:09;;;;;;;2.15;1.15;;;20.70;59.50;;;;;;5045993;28;20070;-47
2022/10/14 11:47:39;;;;;;;1.63;1.20;;;20.70;59.60;;;;;;5045054;28;20033;-47
2022/10/14 11:50:30;;;;;;;1.10;1.00;;;20.70;59.80;;;;;;5041103;28;20025;-55
2022/10/14 11:53:17;;;;;;;1.30;1.10;;;20.70;60.00;;;;;;5044796;28;20068;-51
2022/10/14 11:55:57;;;;;;;1.25;1.10;;;20.70;60.10;;;;;;5041519;28;20455;-52
2022/10/14 11:58:25;;;;;;;2.15;1.00;;;20.80;60.20;;;;;;5044527;28;20028;-49
2022/10/14 12:00:55;;;;;;;1.10;0.80;;;20.80;60.10;;;;;;5041749;28;20045;-52
2022/10/14 12:03:57;;;;;;;1.88;1.00;;;20.80;60.00;;;;;;5049237;28;20044;-50
2022/10/14 12:07:01;;;;;;;2.25;0.90;;;21.00;60.00;;;;;;5043298;28;20055;-48
2022/10/14 12:09:52;;;;;;;1.15;1.00;;;21.00;59.70;;;;;;5049190;28;20036;-54
2022/10/14 12:12:24;;;;;;;1.02;0.95;;;21.10;59.60;;;;;;5043215;28;20061;-50
2022/10/14 12:15:05;;;;;;;0.80;0.80;;;21.20;59.50;;;;;;5048983;28;20047;-49
2022/10/14 12:17:35;;;;;;;0.98;0.82;;;21.30;59.40;;;;;;5048848;28;20128;-51
2022/10/14 12:20:15;;;;;;;1.63;0.98;;;21.40;59.20;;;;;;5046223;28;20076;-52
2022/10/14 12:22:42;;;;;;;0.82;0.70;;;21.40;59.10;;;;;;5047986;28;20090;-55
2022/10/14 12:25:16;;;;;;;1.98;0.75;;;21.50;59.00;;;;;;5049941;28;20057;-50
2022/10/14 12:27:42;;;;;;;0.70;0.70;;;21.50;58.90;;;;;;5050003;28;20025;-51
2022/10/14 12:30:39;;;;;;;1.27;1.00;;;21.60;58.80;;;;;;5048980;28;20510;-48
2022/10/14 12:33:06;;;;;;;3.83;0.93;;;21.70;58.70;;;;;;5041978;28;20041;-52
2022/10/14 12:35:57;;;;;;;1.42;0.90;;;21.70;58.70;;;;;;5050131;28;20029;-49
2022/10/14 12:38:25;;;;;;;0.73;0.70;;;21.80;58.70;;;;;;5045289;28;20674;-54
2022/10/14 12:40:50;;;;;;;1.25;0.73;;;21.80;58.60;;;;;;5050033;28;20395;-52
2022/10/14 12:43:23;;;;;;;0.90;0.70;;;21.90;58.60;;;;;;5048590;28;20029;-48
2022/10/14 12:45:59;;;;;;;1.48;0.70;;;21.90;58.60;;;;;;5047461;28;20036;-53
2022/10/14 12:48:28;;;;;;;1.38;0.75;;;21.90;58.50;;;;;;5047789;28;20112;-46
2022/10/14 12:51:10;;;;;;;1.17;0.68;;;22.00;58.40;;;;;;5048277;28;20017;-48
2022/10/14 12:53:38;;;;;;;1.27;0.75;;;22.00;58.40;;;;;;5050535;28;20033;-50
2022/10/14 12:56:04;;;;;;;1.52;0.80;;;22.10;58.50;;;;;;5050084;28;20440;-48
2022/10/14 12:58:38;;;;;;;0.88;0.50;;;22.10;58.50;;;;;;5049645;28;20033;-48
2022/10/14 13:01:17;;;;;;;0.60;0.50;;;22.10;58.40;;;;;;5048418;28;20036;-48
2022/10/14 13:04:00;;;;;;;0.82;0.57;;;22.20;58.40;;;;;;5050382;28;20104;-46
2022/10/14 13:06:34;;;;;;;1.15;0.60;;;22.20;58.40;;;;;;5048245;28;20140;-52
2022/10/14 13:09:11;;;;;;;1.10;0.70;;;22.20;58.30;;;;;;5049785;28;20020;-48
2022/10/14 13:11:57;;;;;;;0.40;0.40;;;22.30;58.30;;;;;;5042164;28;20056;-49
2022/10/14 13:14:29;;;;;;;0.60;0.60;;;22.30;58.30;;;;;;5008443;28;20056;-50
2022/10/14 13:17:02;;;;;;;0.68;0.50;;;22.30;58.30;;;;;;5050483;28;20045;-50
2022/10/14 13:19:35;;;;;;;0.60;0.50;;;22.40;58.30;;;;;;5046788;28;20033;-46
2022/10/14 13:22:02;;;;;;;0.98;0.50;;;22.40;58.20;;;;;;5052402;28;20115;-51